Eagle Bridge, NY (12057)

8:40 PM EDT on August 28, 2014 (GMT -0400)
Hoosick Falls ,NY Westside of river | Change Station
CLOSE
Current Station
Personal Weather Station
Location: Hoosick Falls, NY
Elevation: 486 ft
Nearby Weather Stations

Elev 486 ft 42.90 °N, 73.37 °W | Updated 36 seconds ago

Overcast
Overcast
62.6 °F
Feels Like 62.6 °F
N
0.0
Wind Variable Wind from East
Gusts 5.0 mph

Today
High -- | Low -- °F
--% Chance of Precip.
Yesterday
High -- | Low -- °F
Precip. -- in
6:13 AM 7:34 PM
Waxing Crescent, 11% visible
Pressure 29.99 in
Visibility 10.0 miles
Clouds Few 4200 ft
Mostly Cloudy 7500 ft
Dew Point 53 °F
Humidity 72%
Rainfall 0.00 in
Snow Depth Not available.
UV 0 out of 12
Pollen 9.10 out of 12
PM2.5 Good
Flu Activity Not available.
METAR KDDH 282354Z AUTO 00000KT 10SM FEW042 BKN075 17/11 A2999 RMK AO2 SLP153 T01720111 10239 20172 53025

More Conditions Fewer Conditions

Pressure 29.99 in
Visibility 10.0 miles
Clouds Few 4200 ft
Mostly Cloudy 7500 ft
Dew Point 53 °F
Humidity 72%
Rainfall 0.00 in
Snow Depth Not available.
UV 0 out of 12
Pollen 9.10 out of 12
PM2.5 Good
Flu Activity Not available.
METAR KDDH 282354Z AUTO 00000KT 10SM FEW042 BKN075 17/11 A2999 RMK AO2 SLP153 T01720111 10239 20172 53025

More Conditions Fewer Conditions

10-Day Weather Forecast

Almanac

Astronomy

Aug. 28, 2014 Rise Set
Actual Time 6:13 AM EDT 7:34 PM EDT
Civil Twilight 5:44 AM EDT 8:04 PM EDT
Nautical Twilight 5:08 AM EDT 8:39 PM EDT
Astronomical Twilight 4:30 AM EDT 9:17 PM EDT
Moon 9:08 AM EDT (8/28) 8:51 PM EDT (8/28)
Length of Visible Light 14h 20m
Length of Day
13h 21m
Tomorrow will be 2m 46s shorter.
Waxing Crescent, 11% of the Moon is Illuminated
Today
Waxing Crescent
Sep 2
First Quarter
Sep 8
Full
Sep 15
Last Quarter
Sep 24
New

Today's Extremes

State Highs State Lows

Community

WunderPhotos

Upload Photos

1,748,112 photos uploaded!

Nearby

Air Quality

  Air Quality AQ Index Pollutant
Yesterday Good
PM2.5
Yesterday Good
OZONE
Current Good
PM2.5
Thursday Good
OZONE
Thursday Good
PM2.5
Friday Good
OZONE
Friday Good
PM2.5

Snow Depth

Station Depth Elevation
No new snow has been reported.

Earthquake Activity

City Distance Mag. Time & Date
No recent earthquake activity has been reported nearby.
Minimum magnitude displayed is 2.5.

Coastal Water Temperatures

Place Temperature
No Stations Reporting

Nearby Weather Stations